createdAt,value
2022-09-15T00:01:33.289Z,99.69
2022-09-15T00:03:59.918Z,99.88
2022-09-15T00:06:26.591Z,100.00
2022-09-15T00:08:53.727Z,99.53
2022-09-15T00:11:25.783Z,99.33
2022-09-15T00:13:53.512Z,98.94
2022-09-15T00:16:21.908Z,98.92
2022-09-15T00:18:48.950Z,98.03
2022-09-15T00:21:19.440Z,97.99
2022-09-15T00:23:46.929Z,97.85
2022-09-15T00:26:16.244Z,97.74
2022-09-15T00:28:43.290Z,96.95
2022-09-15T00:31:13.724Z,97.32
2022-09-15T00:33:40.412Z,97.73
2022-09-15T00:36:10.003Z,97.84
2022-09-15T00:38:37.329Z,97.77
2022-09-15T00:41:05.206Z,97.49
2022-09-15T00:44:02.436Z,97.77
2022-09-15T00:46:37.328Z,98.16
2022-09-15T00:49:21.761Z,97.47
2022-09-15T00:51:56.285Z,96.81
2022-09-15T00:54:30.790Z,96.47
2022-09-15T00:57:00.796Z,95.94
2022-09-15T00:59:29.661Z,95.49
2022-09-15T01:02:08.941Z,95.55
2022-09-15T01:04:35.589Z,95.19
2022-09-15T01:07:04.074Z,95.06
2022-09-15T01:09:38.432Z,94.76
2022-09-15T01:12:05.409Z,94.72
2022-09-15T01:14:32.099Z,95.13
2022-09-15T01:17:24.246Z,94.46
2022-09-15T01:20:11.837Z,94.92
2022-09-15T01:22:51.411Z,94.44
2022-09-15T01:25:33.229Z,94.39
2022-09-15T01:28:24.473Z,94.42
2022-09-15T01:31:17.193Z,93.89
2022-09-15T01:33:50.818Z,94.15
2022-09-15T01:36:23.702Z,94.12
2022-09-15T01:39:01.046Z,94.13
2022-09-15T01:41:31.705Z,93.80
2022-09-15T01:44:07.491Z,93.13
2022-09-15T01:46:38.099Z,93.17
2022-09-15T01:49:06.915Z,93.22
2022-09-15T01:51:34.270Z,93.28
2022-09-15T01:54:03.342Z,92.85
2022-09-15T01:56:29.991Z,93.30
2022-09-15T01:58:56.609Z,93.62
2022-09-15T02:01:42.297Z,93.24
2022-09-15T02:04:16.274Z,93.41
2022-09-15T02:06:53.386Z,94.04
2022-09-15T02:09:27.677Z,93.91
2022-09-15T02:12:09.004Z,94.37
2022-09-15T02:14:39.156Z,94.89
2022-09-15T02:17:05.905Z,95.53
2022-09-15T02:19:36.612Z,96.02
2022-09-15T02:22:11.210Z,96.10
2022-09-15T02:25:03.791Z,95.92
2022-09-15T02:27:34.274Z,95.96
2022-09-15T02:30:06.940Z,95.70
2022-09-15T02:32:35.208Z,95.34
2022-09-15T02:35:06.800Z,95.42
2022-09-15T02:37:35.160Z,95.43
2022-09-15T02:40:02.204Z,96.89
2022-09-15T02:42:31.132Z,96.94
2022-09-15T02:44:58.637Z,96.82
2022-09-15T02:47:25.745Z,96.89
2022-09-15T02:49:52.953Z,96.87
2022-09-15T02:52:19.685Z,96.26
2022-09-15T02:54:46.376Z,96.70
2022-09-15T02:57:14.322Z,96.95
2022-09-15T02:59:59.749Z,96.85
2022-09-15T03:02:26.880Z,96.65
2022-09-15T03:04:53.578Z,96.36
2022-09-15T03:07:20.345Z,96.08
2022-09-15T03:09:47.370Z,96.82
2022-09-15T03:12:14.054Z,96.22
2022-09-15T03:14:40.670Z,96.87
2022-09-15T03:17:07.306Z,98.04
2022-09-15T03:19:33.929Z,98.00
2022-09-15T03:22:00.582Z,97.82
2022-09-15T03:24:27.239Z,97.44
2022-09-15T03:26:53.849Z,97.41
2022-09-15T03:29:20.448Z,97.30
2022-09-15T03:31:47.286Z,96.64
2022-09-15T03:34:13.945Z,97.18
2022-09-15T03:36:41.322Z,97.65
2022-09-15T03:39:08.013Z,97.36
2022-09-15T03:41:34.634Z,97.42
2022-09-15T03:44:01.344Z,97.95
2022-09-15T03:46:28.027Z,98.03
2022-09-15T03:48:54.656Z,97.54
2022-09-15T03:51:21.990Z,97.77
2022-09-15T03:53:49.950Z,97.96
2022-09-15T03:56:24.141Z,97.72
2022-09-15T03:58:51.638Z,97.66
2022-09-15T04:01:19.147Z,97.57
2022-09-15T04:03:50.619Z,97.41
2022-09-15T04:06:19.012Z,97.36
2022-09-15T04:08:45.674Z,97.08
2022-09-15T04:11:13.090Z,96.83
2022-09-15T04:13:40.809Z,96.70
2022-09-15T04:16:09.898Z,96.90
2022-09-15T04:18:36.626Z,97.27
2022-09-15T04:21:06.374Z,97.46
2022-09-15T04:23:33.809Z,97.13
2022-09-15T04:26:06.700Z,96.47
2022-09-15T04:28:35.606Z,96.83
2022-09-15T04:31:10.900Z,97.04
2022-09-15T04:33:39.691Z,97.04
2022-09-15T04:36:11.997Z,96.56
2022-09-15T04:38:38.898Z,96.30
2022-09-15T04:41:06.257Z,96.18
2022-09-15T04:43:33.491Z,95.88
2022-09-15T04:46:00.122Z,96.64
2022-09-15T04:48:27.193Z,96.81
2022-09-15T04:50:54.164Z,96.72
2022-09-15T04:53:20.972Z,97.00
2022-09-15T04:55:47.574Z,97.10
2022-09-15T04:58:14.426Z,98.12
2022-09-15T05:00:43.567Z,98.23
2022-09-15T05:03:11.271Z,99.06
2022-09-15T05:05:38.549Z,99.60
2022-09-15T05:08:05.403Z,99.17
2022-09-15T05:10:32.026Z,99.25
2022-09-15T05:12:58.722Z,98.95
2022-09-15T05:15:25.367Z,98.78
2022-09-15T05:17:52.019Z,99.03
2022-09-15T05:20:18.751Z,98.65
2022-09-15T05:22:45.642Z,98.87
2022-09-15T05:25:12.323Z,98.63
2022-09-15T05:27:39.644Z,98.06
2022-09-15T05:30:32.733Z,98.03
2022-09-15T05:32:54.257Z,97.76
2022-09-15T05:35:20.925Z,97.72
2022-09-15T05:37:47.594Z,97.31
2022-09-15T05:40:15.354Z,97.53
2022-09-15T05:42:42.038Z,97.41
2022-09-15T05:45:09.101Z,97.77
2022-09-15T05:47:35.808Z,97.92
2022-09-15T05:50:02.428Z,97.59
2022-09-15T05:52:29.223Z,97.35
2022-09-15T05:54:58.960Z,97.45
2022-09-15T05:57:25.893Z,97.79
2022-09-15T05:59:52.535Z,98.00
2022-09-15T06:02:19.276Z,98.18
2022-09-15T06:04:45.962Z,98.68
2022-09-15T06:07:13.198Z,98.61
2022-09-15T06:09:39.824Z,98.99
2022-09-15T06:12:06.601Z,98.47
2022-09-15T06:14:33.256Z,98.21
2022-09-15T06:16:59.886Z,97.15
2022-09-15T06:19:26.516Z,97.72
2022-09-15T06:21:54.253Z,97.42
2022-09-15T06:24:21.720Z,97.42
2022-09-15T06:26:48.353Z,97.03
2022-09-15T06:29:15.068Z,95.52
2022-09-15T06:31:41.820Z,96.11
2022-09-15T06:34:09.921Z,95.85
2022-09-15T06:36:37.772Z,95.58
2022-09-15T06:39:05.041Z,95.04
2022-09-15T06:41:47.420Z,95.16
2022-09-15T06:44:21.807Z,95.06
2022-09-15T06:46:49.405Z,95.34
2022-09-15T06:49:16.375Z,95.31
2022-09-15T06:51:43.074Z,94.85
2022-09-15T06:54:09.688Z,95.01
2022-09-15T06:56:38.267Z,94.22
2022-09-15T06:59:05.233Z,94.22
2022-09-15T07:01:32.761Z,93.83
2022-09-15T07:04:01.092Z,94.08
2022-09-15T07:06:29.312Z,93.11
2022-09-15T07:08:56.769Z,93.30
2022-09-15T07:11:23.507Z,93.54
2022-09-15T07:13:50.871Z,92.08
2022-09-15T07:16:19.127Z,93.44
2022-09-15T07:18:46.988Z,91.39
2022-09-15T07:21:16.921Z,91.08
2022-09-15T07:23:43.887Z,90.03
2022-09-15T07:26:12.387Z,90.71
2022-09-15T07:28:39.696Z,89.60
2022-09-15T07:31:07.393Z,90.00
2022-09-15T07:33:34.500Z,88.24
2022-09-15T07:36:08.610Z,88.32
2022-09-15T07:38:38.792Z,86.66
2022-09-15T07:41:13.993Z,86.59
2022-09-15T07:43:44.974Z,86.53
2022-09-15T07:46:11.653Z,87.09
2022-09-15T07:48:38.315Z,84.93
2022-09-15T07:51:05.017Z,85.68
2022-09-15T07:53:31.716Z,87.02
2022-09-15T07:55:58.340Z,86.12
2022-09-15T07:58:25.382Z,86.33
2022-09-15T08:00:52.251Z,82.56
2022-09-15T08:03:19.061Z,83.74
2022-09-15T08:05:46.291Z,80.85
2022-09-15T08:08:13.379Z,82.30
2022-09-15T08:10:41.282Z,80.15
2022-09-15T08:13:08.301Z,77.83
2022-09-15T08:15:37.894Z,77.91
2022-09-15T08:18:05.434Z,76.02
2022-09-15T08:20:32.337Z,76.16
2022-09-15T08:22:59.265Z,73.11
2022-09-15T08:25:26.026Z,73.17
2022-09-15T08:27:54.261Z,72.77
2022-09-15T08:30:21.390Z,72.79
2022-09-15T08:32:48.551Z,72.25
2022-09-15T08:35:16.060Z,73.94
2022-09-15T08:37:42.945Z,71.65
2022-09-15T08:40:18.545Z,72.42
2022-09-15T08:42:47.122Z,71.34
2022-09-15T08:45:48.011Z,72.98
2022-09-15T08:48:16.071Z,72.30
2022-09-15T08:50:45.898Z,72.28
2022-09-15T08:53:16.833Z,73.87
2022-09-15T08:55:43.393Z,72.41
2022-09-15T08:58:15.309Z,71.48
2022-09-15T09:00:42.350Z,72.85
2022-09-15T09:03:25.399Z,73.65
2022-09-15T09:06:19.569Z,71.57
2022-09-15T09:09:03.577Z,72.11
2022-09-15T09:11:35.842Z,72.95
2022-09-15T09:14:08.701Z,75.22
2022-09-15T09:16:58.645Z,71.67
2022-09-15T09:19:53.200Z,72.94
2022-09-15T09:22:34.324Z,72.17
2022-09-15T09:25:11.691Z,71.17
2022-09-15T09:27:43.487Z,71.23
2022-09-15T09:30:15.467Z,71.82
2022-09-15T09:32:46.721Z,72.26
2022-09-15T09:35:38.175Z,71.35
2022-09-15T09:38:04.866Z,74.36
2022-09-15T09:40:32.847Z,78.66
2022-09-15T09:43:01.144Z,81.04
2022-09-15T09:45:27.805Z,82.49
2022-09-15T09:48:01.643Z,81.92
2022-09-15T09:50:43.801Z,84.05
2022-09-15T09:53:26.577Z,85.25
2022-09-15T09:55:55.312Z,85.88
2022-09-15T09:58:25.562Z,85.13
2022-09-15T10:00:53.095Z,85.33
2022-09-15T10:03:21.097Z,85.99
2022-09-15T10:06:07.746Z,82.59
2022-09-15T10:08:36.636Z,79.91
2022-09-15T10:11:10.281Z,80.99
2022-09-15T10:13:50.576Z,82.52
2022-09-15T10:16:18.953Z,82.42
2022-09-15T10:18:45.878Z,81.27
2022-09-15T10:21:14.194Z,81.61
2022-09-15T10:23:40.849Z,79.98
2022-09-15T10:26:16.376Z,77.10
2022-09-15T10:28:43.656Z,77.90
2022-09-15T10:31:11.249Z,75.86
2022-09-15T10:33:42.792Z,77.06
2022-09-15T10:36:15.172Z,75.98
2022-09-15T10:38:47.168Z,73.88
2022-09-15T10:41:35.670Z,75.49
2022-09-15T10:44:09.954Z,72.93
2022-09-15T10:46:55.300Z,73.86
2022-09-15T10:49:46.750Z,74.70
2022-09-15T10:52:35.483Z,71.91
2022-09-15T10:55:42.262Z,72.54
2022-09-15T10:58:50.094Z,73.90
2022-09-15T11:01:32.385Z,73.65
2022-09-15T11:04:20.814Z,72.17
2022-09-15T11:07:08.714Z,72.93
2022-09-15T11:10:08.907Z,70.86
2022-09-15T11:13:00.823Z,70.51
2022-09-15T11:15:37.376Z,69.94
2022-09-15T11:18:14.142Z,71.00
2022-09-15T11:20:52.595Z,69.07
2022-09-15T11:23:24.547Z,69.32
2022-09-15T11:25:57.397Z,66.52
2022-09-15T11:28:33.955Z,67.28
2022-09-15T11:31:04.621Z,67.46
2022-09-15T11:33:40.229Z,70.09
2022-09-15T11:36:11.298Z,70.31
2022-09-15T11:38:49.196Z,74.13
2022-09-15T11:41:24.616Z,74.27
2022-09-15T11:44:01.899Z,73.91
2022-09-15T11:46:37.673Z,75.26
2022-09-15T11:49:12.222Z,76.57
2022-09-15T11:51:44.584Z,78.46
2022-09-15T11:54:17.507Z,79.46
2022-09-15T11:56:45.477Z,78.36
2022-09-15T11:59:22.369Z,80.84
2022-09-15T12:01:53.792Z,79.60
2022-09-15T12:04:27.479Z,75.58
2022-09-15T12:07:04.671Z,75.19
2022-09-15T12:09:31.594Z,78.94
2022-09-15T12:12:01.974Z,77.93
2022-09-15T12:14:33.100Z,76.55
2022-09-15T12:17:00.090Z,75.58
2022-09-15T12:20:00.342Z,73.98
2022-09-15T12:22:32.130Z,74.05
2022-09-15T12:25:06.710Z,75.73
2022-09-15T12:27:33.465Z,70.40
2022-09-15T12:30:00.651Z,71.58
2022-09-15T12:32:35.187Z,69.85
2022-09-15T12:35:04.523Z,73.21
2022-09-15T12:37:35.712Z,71.48
2022-09-15T12:40:05.881Z,73.35
2022-09-15T12:42:34.725Z,74.32
2022-09-15T12:45:12.089Z,75.60
2022-09-15T12:47:49.225Z,74.46
2022-09-15T12:50:15.813Z,78.02
2022-09-15T12:53:14.523Z,76.66
2022-09-15T12:55:58.583Z,76.87
2022-09-15T12:58:39.444Z,79.51
2022-09-15T13:01:34.979Z,80.19
2022-09-15T13:04:05.017Z,80.13
2022-09-15T13:06:35.774Z,80.19
2022-09-15T13:09:02.343Z,79.87
2022-09-15T13:11:37.401Z,80.13
2022-09-15T13:14:04.606Z,81.57
2022-09-15T13:16:32.949Z,79.52
2022-09-15T13:19:26.383Z,81.68
2022-09-15T13:22:11.888Z,80.56
2022-09-15T13:25:15.894Z,77.51
2022-09-15T13:27:48.144Z,80.52
2022-09-15T13:30:20.694Z,80.46
2022-09-15T13:32:59.293Z,79.13
2022-09-15T13:35:31.549Z,78.85
2022-09-15T13:38:35.991Z,81.58
2022-09-15T13:41:33.285Z,83.27
2022-09-15T13:44:20.966Z,82.38
2022-09-15T13:47:02.710Z,82.53
2022-09-15T13:49:29.849Z,83.48
2022-09-15T13:52:03.602Z,79.48
2022-09-15T13:54:30.396Z,79.94
2022-09-15T13:57:00.607Z,83.54
2022-09-15T13:59:31.759Z,83.00
2022-09-15T14:01:59.447Z,83.31
2022-09-15T14:04:32.342Z,83.52
2022-09-15T14:07:01.311Z,81.36
2022-09-15T14:09:31.726Z,80.79
2022-09-15T14:12:02.451Z,82.18
2022-09-15T14:14:54.156Z,82.42
2022-09-15T14:17:26.583Z,82.28
2022-09-15T14:19:55.183Z,83.15
2022-09-15T14:22:28.865Z,81.31
2022-09-15T14:25:06.142Z,82.75
2022-09-15T14:27:34.777Z,82.75
2022-09-15T14:30:04.174Z,81.28
2022-09-15T14:32:34.804Z,81.12
2022-09-15T14:35:05.727Z,80.02
2022-09-15T14:37:32.703Z,81.18
2022-09-15T14:40:00.586Z,80.24
2022-09-15T14:42:35.614Z,80.90
2022-09-15T14:48:01.528Z,76.74
2022-09-15T14:50:32.538Z,79.21
2022-09-15T14:53:08.483Z,79.28
2022-09-15T14:56:00.582Z,78.12
2022-09-15T14:58:33.200Z,78.81
2022-09-15T15:01:13.959Z,77.96
2022-09-15T15:03:52.954Z,76.76
2022-09-15T15:06:30.499Z,76.83
2022-09-15T15:09:18.010Z,75.98
2022-09-15T15:11:44.770Z,76.70
2022-09-15T15:14:12.666Z,77.60
2022-09-15T15:16:50.891Z,78.11
2022-09-15T15:19:40.221Z,78.59
2022-09-15T15:22:12.904Z,78.60
2022-09-15T15:24:51.302Z,78.72
2022-09-15T15:27:40.740Z,78.49
2022-09-15T15:30:29.716Z,78.23
2022-09-15T15:32:58.976Z,78.95
2022-09-15T15:35:25.952Z,81.36
2022-09-15T15:38:04.851Z,80.04
2022-09-15T15:40:31.544Z,79.89
2022-09-15T15:43:04.936Z,80.36
2022-09-15T15:45:36.378Z,80.76
2022-09-15T15:48:04.972Z,80.57
2022-09-15T15:50:34.404Z,80.42
2022-09-15T15:53:03.056Z,80.44
2022-09-15T15:55:42.815Z,80.21
2022-09-15T15:58:11.538Z,80.63
2022-09-15T16:00:46.716Z,80.18
2022-09-15T16:03:14.653Z,80.18
2022-09-15T16:05:44.807Z,79.63
2022-09-15T16:08:15.845Z,79.73
2022-09-15T16:10:45.063Z,80.13
2022-09-15T16:13:17.263Z,80.74
2022-09-15T16:15:44.314Z,80.36
2022-09-15T16:18:11.530Z,80.39
2022-09-15T16:20:38.560Z,80.99
2022-09-15T16:23:09.963Z,80.05
2022-09-15T16:25:45.950Z,81.10
2022-09-15T16:28:13.021Z,81.24
2022-09-15T16:30:39.677Z,79.68
2022-09-15T16:33:06.382Z,79.84
2022-09-15T16:36:08.801Z,79.89
2022-09-15T16:38:36.404Z,80.85
2022-09-15T16:41:03.964Z,81.16
2022-09-15T16:43:30.737Z,82.30
2022-09-15T16:45:57.583Z,82.64
2022-09-15T16:48:24.404Z,83.19
2022-09-15T16:51:16.843Z,83.20
2022-09-15T16:53:39.548Z,82.07
2022-09-15T16:56:07.409Z,81.77
2022-09-15T16:58:34.471Z,81.81
2022-09-15T17:01:01.257Z,81.75
2022-09-15T17:03:28.266Z,82.00
2022-09-15T17:05:57.611Z,81.29
2022-09-15T17:08:27.405Z,81.02
2022-09-15T17:10:56.138Z,80.20
2022-09-15T17:13:26.459Z,80.19
2022-09-15T17:15:56.219Z,80.75
2022-09-15T17:18:23.357Z,79.54
2022-09-15T17:20:50.770Z,80.30
2022-09-15T17:23:28.743Z,80.83
2022-09-15T17:25:59.107Z,80.43
2022-09-15T17:28:31.811Z,79.72
2022-09-15T17:31:00.353Z,80.33
2022-09-15T17:33:28.466Z,80.29
2022-09-15T17:35:55.203Z,80.64
2022-09-15T17:38:22.326Z,81.36
2022-09-15T17:40:50.003Z,81.10
2022-09-15T17:43:18.773Z,81.68
2022-09-15T17:45:46.273Z,82.56
2022-09-15T17:48:13.062Z,82.57
2022-09-15T17:50:41.893Z,82.77
2022-09-15T17:53:23.702Z,83.09
2022-09-15T17:55:50.813Z,83.67
2022-09-15T17:58:18.820Z,84.22
2022-09-15T18:00:46.056Z,83.91
2022-09-15T18:03:33.384Z,83.65
2022-09-15T18:06:03.798Z,83.54
2022-09-15T18:08:31.748Z,82.95
2022-09-15T18:10:59.198Z,83.40
2022-09-15T18:13:27.449Z,83.35
2022-09-15T18:15:55.098Z,82.63
2022-09-15T18:18:24.050Z,82.38
2022-09-15T18:20:51.894Z,82.78
2022-09-15T18:23:20.774Z,82.66
2022-09-15T18:25:48.005Z,82.54
2022-09-15T18:28:16.006Z,82.24
2022-09-15T18:30:44.822Z,82.40
2022-09-15T18:33:15.278Z,82.75
2022-09-15T18:35:42.517Z,83.03
2022-09-15T18:38:09.325Z,83.35
2022-09-15T18:40:36.237Z,83.17
2022-09-15T18:43:03.325Z,83.36
2022-09-15T18:45:30.011Z,83.03
2022-09-15T18:47:59.562Z,83.53
2022-09-15T18:50:26.650Z,83.50
2022-09-15T18:52:53.410Z,84.04
2022-09-15T18:55:21.892Z,84.03
2022-09-15T18:57:49.218Z,83.78
2022-09-15T19:00:18.369Z,84.44
2022-09-15T19:02:45.027Z,84.71
2022-09-15T19:05:12.357Z,85.06
2022-09-15T19:07:39.234Z,84.60
2022-09-15T19:10:07.250Z,85.21
2022-09-15T19:12:35.362Z,85.59
2022-09-15T19:15:02.553Z,86.01
2022-09-15T19:17:29.225Z,86.24
2022-09-15T19:19:55.938Z,86.52
2022-09-15T19:22:22.647Z,85.58
2022-09-15T19:24:49.610Z,85.57
2022-09-15T19:27:16.301Z,85.89
2022-09-15T19:29:42.983Z,85.80
2022-09-15T19:32:12.800Z,85.65
2022-09-15T19:34:41.968Z,85.89
2022-09-15T19:37:13.162Z,86.30
2022-09-15T19:39:43.489Z,86.98
2022-09-15T19:42:11.357Z,88.66
2022-09-15T19:44:38.243Z,88.31
2022-09-15T19:47:04.897Z,89.49
2022-09-15T19:49:31.601Z,89.38
2022-09-15T19:51:58.301Z,89.18
2022-09-15T19:54:29.858Z,90.97
2022-09-15T19:56:56.841Z,90.71
2022-09-15T19:59:27.391Z,91.42
2022-09-15T20:01:57.079Z,91.19
2022-09-15T20:04:23.757Z,90.85
2022-09-15T20:06:50.536Z,90.62
2022-09-15T20:09:17.698Z,92.08
2022-09-15T20:11:44.457Z,92.15
2022-09-15T20:14:11.237Z,92.00
2022-09-15T20:16:38.041Z,91.21
2022-09-15T20:19:05.095Z,90.72
2022-09-15T20:21:51.197Z,90.16
2022-09-15T20:24:19.141Z,89.24
2022-09-15T20:26:45.867Z,89.36
2022-09-15T20:29:12.789Z,89.18
2022-09-15T20:31:39.426Z,89.92
2022-09-15T20:34:06.081Z,89.42
2022-09-15T20:36:36.186Z,90.72
2022-09-15T20:39:04.991Z,91.12
2022-09-15T20:41:34.497Z,90.75
2022-09-15T20:44:01.254Z,90.93
2022-09-15T20:46:31.512Z,91.24
2022-09-15T20:48:58.149Z,91.32
2022-09-15T20:51:27.941Z,90.85
2022-09-15T20:53:56.013Z,90.73
2022-09-15T20:56:25.768Z,90.23
2022-09-15T20:58:57.215Z,91.34
2022-09-15T21:01:34.122Z,91.71
2022-09-15T21:04:01.127Z,92.28
2022-09-15T21:06:28.444Z,92.69
2022-09-15T21:08:58.696Z,93.96
2022-09-15T21:11:26.752Z,94.01
2022-09-15T21:13:54.370Z,93.51
2022-09-15T21:16:23.363Z,92.90
2022-09-15T21:18:50.865Z,91.68
2022-09-15T21:21:29.925Z,91.27
2022-09-15T21:24:00.409Z,91.96
2022-09-15T21:26:28.977Z,90.99
2022-09-15T21:28:56.235Z,92.02
2022-09-15T21:31:33.280Z,92.30
2022-09-15T21:33:59.976Z,92.22
2022-09-15T21:36:31.123Z,91.96
2022-09-15T21:38:58.925Z,92.63
2022-09-15T21:41:28.438Z,93.33
2022-09-15T21:43:55.596Z,93.66
2022-09-15T21:46:24.328Z,93.02
2022-09-15T21:48:51.156Z,93.32
2022-09-15T21:51:23.496Z,92.37
2022-09-15T21:53:55.533Z,92.55
2022-09-15T21:56:22.695Z,91.86
2022-09-15T21:58:49.385Z,91.76
2022-09-15T22:01:20.083Z,91.29
2022-09-15T22:03:58.548Z,91.04
2022-09-15T22:06:30.291Z,90.85
2022-09-15T22:09:00.560Z,90.13
2022-09-15T22:11:27.546Z,90.21
2022-09-15T22:13:54.310Z,90.17
2022-09-15T22:16:22.269Z,89.60
2022-09-15T22:18:49.310Z,89.53
2022-09-15T22:21:23.191Z,89.32
2022-09-15T22:23:50.914Z,89.06
2022-09-15T22:26:26.314Z,88.58
2022-09-15T22:28:53.926Z,88.88
2022-09-15T22:31:21.617Z,90.48
2022-09-15T22:33:49.306Z,91.25
2022-09-15T22:36:18.717Z,91.57
2022-09-15T22:38:45.673Z,91.17
2022-09-15T22:41:14.117Z,90.28
2022-09-15T22:43:43.771Z,89.81
2022-09-15T22:46:11.025Z,89.34
2022-09-15T22:48:43.166Z,89.59
2022-09-15T22:51:10.736Z,89.57
2022-09-15T22:53:37.424Z,89.68
2022-09-15T22:56:23.306Z,90.86
2022-09-15T22:58:50.215Z,90.91
2022-09-15T23:01:21.516Z,90.43
2022-09-15T23:03:55.878Z,90.16
2022-09-15T23:06:23.722Z,90.34
2022-09-15T23:09:00.997Z,90.82
2022-09-15T23:11:29.249Z,91.30
2022-09-15T23:13:56.464Z,91.64
2022-09-15T23:16:24.336Z,91.81
2022-09-15T23:18:51.725Z,92.00
2022-09-15T23:21:18.640Z,91.89
2022-09-15T23:23:46.295Z,92.00
2022-09-15T23:26:13.677Z,91.47
2022-09-15T23:28:40.826Z,91.42
2022-09-15T23:31:08.781Z,91.10
2022-09-15T23:33:35.645Z,90.91
2022-09-15T23:36:03.457Z,90.65
2022-09-15T23:38:30.608Z,90.07
2022-09-15T23:40:57.435Z,89.64
2022-09-15T23:43:24.570Z,89.88
2022-09-15T23:45:51.395Z,90.66
2022-09-15T23:48:18.192Z,91.18
2022-09-15T23:50:45.012Z,91.15
2022-09-15T23:53:11.751Z,92.79
2022-09-15T23:55:38.469Z,93.01
2022-09-15T23:58:06.147Z,93.20
